sensor_id;sensor_type;location;lat;lon;timestamp;temperature;humidity
76967;DHT22;65904;52.278;20.972;2023-06-19T00:01:31;16.00;99.90
76967;DHT22;65904;52.278;20.972;2023-06-19T00:04:18;16.00;99.90
76967;DHT22;65904;52.278;20.972;2023-06-19T00:07:04;15.80;99.90
76967;DHT22;65904;52.278;20.972;2023-06-19T00:09:50;15.80;99.90
76967;DHT22;65904;52.278;20.972;2023-06-19T00:12:38;15.80;99.90
76967;DHT22;65904;52.278;20.972;2023-06-19T00:15:24;15.80;99.90
76967;DHT22;65904;52.278;20.972;2023-06-19T00:18:14;15.70;99.90
76967;DHT22;65904;52.278;20.972;2023-06-19T00:21:01;15.70;99.90
76967;DHT22;65904;52.278;20.972;2023-06-19T00:23:50;15.70;99.90
76967;DHT22;65904;52.278;20.972;2023-06-19T00:26:36;15.70;99.90
76967;DHT22;65904;52.278;20.972;2023-06-19T00:29:24;15.60;99.90
76967;DHT22;65904;52.278;20.972;2023-06-19T00:32:13;15.60;99.90
76967;DHT22;65904;52.278;20.972;2023-06-19T00:35:00;15.50;99.90
76967;DHT22;65904;52.278;20.972;2023-06-19T00:37:48;15.50;99.90
76967;DHT22;65904;52.278;20.972;2023-06-19T00:40:34;15.50;99.90
76967;DHT22;65904;52.278;20.972;2023-06-19T00:43:21;15.50;99.90
76967;DHT22;65904;52.278;20.972;2023-06-19T00:46:09;15.40;99.90
76967;DHT22;65904;52.278;20.972;2023-06-19T00:48:56;15.30;99.90
76967;DHT22;65904;52.278;20.972;2023-06-19T00:51:43;15.40;99.90
76967;DHT22;65904;52.278;20.972;2023-06-19T00:54:32;15.30;99.90
76967;DHT22;65904;52.278;20.972;2023-06-19T00:57:19;15.30;99.90
76967;DHT22;65904;52.278;20.972;2023-06-19T01:00:07;15.20;99.90
76967;DHT22;65904;52.278;20.972;2023-06-19T01:02:54;15.10;99.90
76967;DHT22;65904;52.278;20.972;2023-06-19T01:05:41;15.20;99.90
76967;DHT22;65904;52.278;20.972;2023-06-19T01:08:43;15.20;99.90
76967;DHT22;65904;52.278;20.972;2023-06-19T01:11:35;15.10;99.90
76967;DHT22;65904;52.278;20.972;2023-06-19T01:14:25;15.10;99.90
76967;DHT22;65904;52.278;20.972;2023-06-19T01:17:13;15.20;99.90
76967;DHT22;65904;52.278;20.972;2023-06-19T01:20:01;15.20;99.90
76967;DHT22;65904;52.278;20.972;2023-06-19T01:23:06;15.20;99.90
76967;DHT22;65904;52.278;20.972;2023-06-19T01:25:52;15.20;99.90
76967;DHT22;65904;52.278;20.972;2023-06-19T01:28:40;15.20;99.90
76967;DHT22;65904;52.278;20.972;2023-06-19T01:31:32;15.20;99.90
76967;DHT22;65904;52.278;20.972;2023-06-19T01:34:20;15.10;99.90
76967;DHT22;65904;52.278;20.972;2023-06-19T01:37:07;15.10;99.90
76967;DHT22;65904;52.278;20.972;2023-06-19T01:39:57;15.00;99.90
76967;DHT22;65904;52.278;20.972;2023-06-19T01:42:44;15.00;99.90
76967;DHT22;65904;52.278;20.972;2023-06-19T01:45:31;14.90;99.90
76967;DHT22;65904;52.278;20.972;2023-06-19T01:48:18;14.70;99.90
76967;DHT22;65904;52.278;20.972;2023-06-19T01:51:04;14.80;99.90
76967;DHT22;65904;52.278;20.972;2023-06-19T01:53:50;14.80;99.90
76967;DHT22;65904;52.278;20.972;2023-06-19T01:56:38;14.80;99.90
76967;DHT22;65904;52.278;20.972;2023-06-19T01:59:24;14.80;99.90
76967;DHT22;65904;52.278;20.972;2023-06-19T02:02:10;14.80;99.90
76967;DHT22;65904;52.278;20.972;2023-06-19T02:04:56;14.70;99.90
76967;DHT22;65904;52.278;20.972;2023-06-19T02:07:42;14.70;99.90
76967;DHT22;65904;52.278;20.972;2023-06-19T02:10:29;14.70;99.90
76967;DHT22;65904;52.278;20.972;2023-06-19T02:13:17;14.70;99.90
76967;DHT22;65904;52.278;20.972;2023-06-19T02:16:03;14.70;99.90
76967;DHT22;65904;52.278;20.972;2023-06-19T02:18:52;14.70;99.90
76967;DHT22;65904;52.278;20.972;2023-06-19T02:21:38;14.70;99.90
76967;DHT22;65904;52.278;20.972;2023-06-19T02:24:25;14.60;99.90
76967;DHT22;65904;52.278;20.972;2023-06-19T02:27:11;14.70;99.90
76967;DHT22;65904;52.278;20.972;2023-06-19T02:29:58;14.70;99.90
76967;DHT22;65904;52.278;20.972;2023-06-19T02:32:44;14.60;99.90
76967;DHT22;65904;52.278;20.972;2023-06-19T02:35:30;14.50;99.90
76967;DHT22;65904;52.278;20.972;2023-06-19T02:38:16;14.40;99.90
76967;DHT22;65904;52.278;20.972;2023-06-19T02:41:07;14.40;99.90
76967;DHT22;65904;52.278;20.972;2023-06-19T02:43:53;14.40;99.90
76967;DHT22;65904;52.278;20.972;2023-06-19T02:46:41;14.40;99.90
76967;DHT22;65904;52.278;20.972;2023-06-19T02:49:28;14.40;99.90
76967;DHT22;65904;52.278;20.972;2023-06-19T02:52:16;14.30;99.90
76967;DHT22;65904;52.278;20.972;2023-06-19T02:55:03;14.30;99.90
76967;DHT22;65904;52.278;20.972;2023-06-19T02:57:49;14.40;99.90
76967;DHT22;65904;52.278;20.972;2023-06-19T03:00:35;14.40;99.90
76967;DHT22;65904;52.278;20.972;2023-06-19T03:03:23;14.50;99.90
76967;DHT22;65904;52.278;20.972;2023-06-19T03:06:09;14.50;99.90
76967;DHT22;65904;52.278;20.972;2023-06-19T03:08:55;14.50;99.90
76967;DHT22;65904;52.278;20.972;2023-06-19T03:11:42;14.40;99.90
76967;DHT22;65904;52.278;20.972;2023-06-19T03:14:28;14.30;99.90
76967;DHT22;65904;52.278;20.972;2023-06-19T03:17:15;14.40;99.90
76967;DHT22;65904;52.278;20.972;2023-06-19T03:20:04;14.50;99.90
76967;DHT22;65904;52.278;20.972;2023-06-19T03:22:50;14.60;99.90
76967;DHT22;65904;52.278;20.972;2023-06-19T03:25:37;14.50;99.90
76967;DHT22;65904;52.278;20.972;2023-06-19T03:28:29;14.60;99.90
76967;DHT22;65904;52.278;20.972;2023-06-19T03:31:17;14.60;99.90
76967;DHT22;65904;52.278;20.972;2023-06-19T03:34:03;14.70;99.90
76967;DHT22;65904;52.278;20.972;2023-06-19T03:36:51;14.70;99.90
76967;DHT22;65904;52.278;20.972;2023-06-19T03:39:40;14.70;99.90
76967;DHT22;65904;52.278;20.972;2023-06-19T03:42:29;14.70;99.90
76967;DHT22;65904;52.278;20.972;2023-06-19T03:45:16;14.90;99.90
76967;DHT22;65904;52.278;20.972;2023-06-19T03:48:04;14.90;99.90
76967;DHT22;65904;52.278;20.972;2023-06-19T03:50:50;15.00;99.90
76967;DHT22;65904;52.278;20.972;2023-06-19T03:53:37;15.10;99.90
76967;DHT22;65904;52.278;20.972;2023-06-19T03:56:24;15.10;99.90
76967;DHT22;65904;52.278;20.972;2023-06-19T03:59:10;15.20;99.90
76967;DHT22;65904;52.278;20.972;2023-06-19T04:01:56;15.30;99.90
76967;DHT22;65904;52.278;20.972;2023-06-19T04:04:42;15.30;99.90
76967;DHT22;65904;52.278;20.972;2023-06-19T04:07:28;15.30;99.90
76967;DHT22;65904;52.278;20.972;2023-06-19T04:10:17;15.40;99.90
76967;DHT22;65904;52.278;20.972;2023-06-19T04:13:04;15.40;99.90
76967;DHT22;65904;52.278;20.972;2023-06-19T04:15:51;15.50;99.90
76967;DHT22;65904;52.278;20.972;2023-06-19T04:18:38;15.60;99.90
76967;DHT22;65904;52.278;20.972;2023-06-19T04:21:24;15.60;99.90
76967;DHT22;65904;52.278;20.972;2023-06-19T04:24:10;15.70;99.90
76967;DHT22;65904;52.278;20.972;2023-06-19T04:26:57;15.70;99.90
76967;DHT22;65904;52.278;20.972;2023-06-19T04:29:44;15.80;99.90
76967;DHT22;65904;52.278;20.972;2023-06-19T04:32:31;15.90;99.90
76967;DHT22;65904;52.278;20.972;2023-06-19T04:35:17;15.90;99.90
76967;DHT22;65904;52.278;20.972;2023-06-19T04:38:03;16.00;99.90
76967;DHT22;65904;52.278;20.972;2023-06-19T04:40:50;16.00;99.90
76967;DHT22;65904;52.278;20.972;2023-06-19T04:43:37;16.00;99.90
76967;DHT22;65904;52.278;20.972;2023-06-19T04:46:26;16.20;99.90
76967;DHT22;65904;52.278;20.972;2023-06-19T04:49:12;16.30;99.90
76967;DHT22;65904;52.278;20.972;2023-06-19T04:51:58;16.30;99.90
76967;DHT22;65904;52.278;20.972;2023-06-19T04:54:44;16.40;99.90
76967;DHT22;65904;52.278;20.972;2023-06-19T04:57:33;16.40;99.90
76967;DHT22;65904;52.278;20.972;2023-06-19T05:00:20;16.60;99.90
76967;DHT22;65904;52.278;20.972;2023-06-19T05:03:08;16.60;99.90
76967;DHT22;65904;52.278;20.972;2023-06-19T05:05:54;16.70;99.90
76967;DHT22;65904;52.278;20.972;2023-06-19T05:08:41;16.80;99.90
76967;DHT22;65904;52.278;20.972;2023-06-19T05:11:27;16.80;99.90
76967;DHT22;65904;52.278;20.972;2023-06-19T05:14:13;16.80;99.90
76967;DHT22;65904;52.278;20.972;2023-06-19T05:17:01;16.90;99.90
76967;DHT22;65904;52.278;20.972;2023-06-19T05:19:47;17.00;99.90
76967;DHT22;65904;52.278;20.972;2023-06-19T05:22:34;17.20;99.90
76967;DHT22;65904;52.278;20.972;2023-06-19T05:25:21;17.20;99.90
76967;DHT22;65904;52.278;20.972;2023-06-19T05:28:07;17.30;99.90
76967;DHT22;65904;52.278;20.972;2023-06-19T05:30:53;17.40;99.90
76967;DHT22;65904;52.278;20.972;2023-06-19T05:33:41;17.50;99.90
76967;DHT22;65904;52.278;20.972;2023-06-19T05:36:27;17.50;99.90
76967;DHT22;65904;52.278;20.972;2023-06-19T05:39:14;17.60;99.90
76967;DHT22;65904;52.278;20.972;2023-06-19T05:42:00;17.70;99.90
76967;DHT22;65904;52.278;20.972;2023-06-19T05:44:46;17.80;99.90
76967;DHT22;65904;52.278;20.972;2023-06-19T05:47:33;17.90;99.90
76967;DHT22;65904;52.278;20.972;2023-06-19T05:50:20;18.00;99.90
76967;DHT22;65904;52.278;20.972;2023-06-19T05:53:06;18.00;99.90
76967;DHT22;65904;52.278;20.972;2023-06-19T05:55:53;18.10;99.90
76967;DHT22;65904;52.278;20.972;2023-06-19T05:58:39;18.20;99.90
76967;DHT22;65904;52.278;20.972;2023-06-19T06:01:25;18.30;99.90
76967;DHT22;65904;52.278;20.972;2023-06-19T06:04:12;18.40;99.90
76967;DHT22;65904;52.278;20.972;2023-06-19T06:07:00;18.50;99.90
76967;DHT22;65904;52.278;20.972;2023-06-19T06:09:46;18.60;99.90
76967;DHT22;65904;52.278;20.972;2023-06-19T06:12:33;18.80;99.90
76967;DHT22;65904;52.278;20.972;2023-06-19T06:15:20;18.80;99.90
76967;DHT22;65904;52.278;20.972;2023-06-19T06:18:06;18.80;99.90
76967;DHT22;65904;52.278;20.972;2023-06-19T06:20:52;18.90;99.90
76967;DHT22;65904;52.278;20.972;2023-06-19T06:23:40;19.10;99.90
76967;DHT22;65904;52.278;20.972;2023-06-19T06:26:29;19.20;99.90
76967;DHT22;65904;52.278;20.972;2023-06-19T06:29:16;19.20;99.90
76967;DHT22;65904;52.278;20.972;2023-06-19T06:32:06;19.20;99.90
76967;DHT22;65904;52.278;20.972;2023-06-19T06:34:53;19.30;99.90
76967;DHT22;65904;52.278;20.972;2023-06-19T06:37:39;19.40;99.90
76967;DHT22;65904;52.278;20.972;2023-06-19T06:40:27;19.60;99.90
76967;DHT22;65904;52.278;20.972;2023-06-19T06:43:13;19.70;99.90
76967;DHT22;65904;52.278;20.972;2023-06-19T06:46:00;19.80;99.90
76967;DHT22;65904;52.278;20.972;2023-06-19T06:48:46;19.80;99.90
76967;DHT22;65904;52.278;20.972;2023-06-19T06:51:32;19.80;99.90
76967;DHT22;65904;52.278;20.972;2023-06-19T06:54:17;19.70;99.90
76967;DHT22;65904;52.278;20.972;2023-06-19T06:57:05;19.90;99.90
76967;DHT22;65904;52.278;20.972;2023-06-19T06:59:51;20.10;99.90
76967;DHT22;65904;52.278;20.972;2023-06-19T07:02:38;20.30;99.90
76967;DHT22;65904;52.278;20.972;2023-06-19T07:05:25;20.30;99.90
76967;DHT22;65904;52.278;20.972;2023-06-19T07:08:11;20.50;99.90
76967;DHT22;65904;52.278;20.972;2023-06-19T07:10:57;20.70;99.90
76967;DHT22;65904;52.278;20.972;2023-06-19T07:13:45;20.70;99.90
76967;DHT22;65904;52.278;20.972;2023-06-19T07:16:31;20.60;99.90
76967;DHT22;65904;52.278;20.972;2023-06-19T07:19:17;20.50;99.90
76967;DHT22;65904;52.278;20.972;2023-06-19T07:22:04;20.60;99.90
76967;DHT22;65904;52.278;20.972;2023-06-19T07:24:50;20.60;99.90
76967;DHT22;65904;52.278;20.972;2023-06-19T07:27:36;20.70;99.90
76967;DHT22;65904;52.278;20.972;2023-06-19T07:30:24;20.80;99.90
76967;DHT22;65904;52.278;20.972;2023-06-19T07:33:10;21.00;99.90
76967;DHT22;65904;52.278;20.972;2023-06-19T07:35:57;21.20;99.90
76967;DHT22;65904;52.278;20.972;2023-06-19T07:38:44;21.20;99.90
76967;DHT22;65904;52.278;20.972;2023-06-19T07:41:30;21.20;99.90
76967;DHT22;65904;52.278;20.972;2023-06-19T07:44:16;21.30;99.90
76967;DHT22;65904;52.278;20.972;2023-06-19T07:47:05;21.50;99.90
76967;DHT22;65904;52.278;20.972;2023-06-19T07:49:51;21.60;99.90
76967;DHT22;65904;52.278;20.972;2023-06-19T07:52:37;21.70;99.90
76967;DHT22;65904;52.278;20.972;2023-06-19T07:55:24;21.80;99.90
76967;DHT22;65904;52.278;20.972;2023-06-19T07:58:10;21.70;99.90
76967;DHT22;65904;52.278;20.972;2023-06-19T08:00:56;21.70;99.90
76967;DHT22;65904;52.278;20.972;2023-06-19T08:03:43;21.80;99.90
76967;DHT22;65904;52.278;20.972;2023-06-19T08:06:29;21.90;99.90
76967;DHT22;65904;52.278;20.972;2023-06-19T08:09:16;22.00;99.90
76967;DHT22;65904;52.278;20.972;2023-06-19T08:12:02;22.00;99.90
76967;DHT22;65904;52.278;20.972;2023-06-19T08:14:49;21.90;99.90
76967;DHT22;65904;52.278;20.972;2023-06-19T08:17:35;21.90;99.90
76967;DHT22;65904;52.278;20.972;2023-06-19T08:20:23;22.00;99.90
76967;DHT22;65904;52.278;20.972;2023-06-19T08:23:09;22.10;99.90
76967;DHT22;65904;52.278;20.972;2023-06-19T08:25:55;22.20;99.90
76967;DHT22;65904;52.278;20.972;2023-06-19T08:28:41;22.40;99.90
76967;DHT22;65904;52.278;20.972;2023-06-19T08:31:27;22.70;99.90
76967;DHT22;65904;52.278;20.972;2023-06-19T08:34:13;22.60;99.90
76967;DHT22;65904;52.278;20.972;2023-06-19T08:37:01;22.60;99.90
76967;DHT22;65904;52.278;20.972;2023-06-19T08:39:47;22.80;99.90
76967;DHT22;65904;52.278;20.972;2023-06-19T08:42:34;23.10;99.90
76967;DHT22;65904;52.278;20.972;2023-06-19T08:45:20;23.30;99.90
76967;DHT22;65904;52.278;20.972;2023-06-19T08:48:06;23.30;99.90
76967;DHT22;65904;52.278;20.972;2023-06-19T08:50:58;23.10;99.90
76967;DHT22;65904;52.278;20.972;2023-06-19T08:53:47;23.10;99.90
76967;DHT22;65904;52.278;20.972;2023-06-19T08:56:35;23.50;99.90
76967;DHT22;65904;52.278;20.972;2023-06-19T08:59:22;23.60;99.90
76967;DHT22;65904;52.278;20.972;2023-06-19T09:02:08;23.70;99.90
76967;DHT22;65904;52.278;20.972;2023-06-19T09:04:54;23.80;99.90
76967;DHT22;65904;52.278;20.972;2023-06-19T09:07:40;23.90;99.90
76967;DHT22;65904;52.278;20.972;2023-06-19T09:10:28;24.10;99.90
76967;DHT22;65904;52.278;20.972;2023-06-19T09:13:16;24.10;99.90
76967;DHT22;65904;52.278;20.972;2023-06-19T09:16:04;24.20;99.90
76967;DHT22;65904;52.278;20.972;2023-06-19T09:18:50;24.40;99.90
76967;DHT22;65904;52.278;20.972;2023-06-19T09:21:40;24.40;99.90
76967;DHT22;65904;52.278;20.972;2023-06-19T09:24:33;24.40;99.90
76967;DHT22;65904;52.278;20.972;2023-06-19T09:27:22;24.60;99.90
76967;DHT22;65904;52.278;20.972;2023-06-19T09:30:15;24.90;99.90
76967;DHT22;65904;52.278;20.972;2023-06-19T09:33:06;25.20;99.90
76967;DHT22;65904;52.278;20.972;2023-06-19T09:35:54;25.30;99.90
76967;DHT22;65904;52.278;20.972;2023-06-19T09:38:40;25.70;99.90
76967;DHT22;65904;52.278;20.972;2023-06-19T09:41:30;25.60;99.90
76967;DHT22;65904;52.278;20.972;2023-06-19T09:44:18;25.90;99.90
76967;DHT22;65904;52.278;20.972;2023-06-19T09:47:13;26.10;99.90
76967;DHT22;65904;52.278;20.972;2023-06-19T09:50:04;26.40;99.90
76967;DHT22;65904;52.278;20.972;2023-06-19T09:52:50;26.10;99.90
76967;DHT22;65904;52.278;20.972;2023-06-19T09:55:37;26.30;99.90
76967;DHT22;65904;52.278;20.972;2023-06-19T09:58:25;26.60;99.90
76967;DHT22;65904;52.278;20.972;2023-06-19T10:01:14;27.00;99.90
76967;DHT22;65904;52.278;20.972;2023-06-19T10:04:06;27.20;99.90
76967;DHT22;65904;52.278;20.972;2023-06-19T10:06:53;27.20;98.70
76967;DHT22;65904;52.278;20.972;2023-06-19T10:09:54;27.30;98.80
76967;DHT22;65904;52.278;20.972;2023-06-19T10:12:42;27.30;97.30
76967;DHT22;65904;52.278;20.972;2023-06-19T10:15:28;27.20;97.30
76967;DHT22;65904;52.278;20.972;2023-06-19T10:18:17;27.30;97.90
76967;DHT22;65904;52.278;20.972;2023-06-19T10:21:03;27.40;96.60
76967;DHT22;65904;52.278;20.972;2023-06-19T10:24:01;27.40;97.00
76967;DHT22;65904;52.278;20.972;2023-06-19T10:26:59;27.20;96.90
76967;DHT22;65904;52.278;20.972;2023-06-19T10:29:52;27.20;96.30
76967;DHT22;65904;52.278;20.972;2023-06-19T10:32:38;27.30;96.10
76967;DHT22;65904;52.278;20.972;2023-06-19T10:35:26;27.40;96.20
76967;DHT22;65904;52.278;20.972;2023-06-19T10:38:14;27.60;94.50
76967;DHT22;65904;52.278;20.972;2023-06-19T10:41:01;27.60;94.50
76967;DHT22;65904;52.278;20.972;2023-06-19T10:43:52;28.00;94.70
76967;DHT22;65904;52.278;20.972;2023-06-19T10:46:39;27.90;93.80
76967;DHT22;65904;52.278;20.972;2023-06-19T10:49:25;27.90;93.20
76967;DHT22;65904;52.278;20.972;2023-06-19T10:52:13;28.30;93.90
76967;DHT22;65904;52.278;20.972;2023-06-19T10:55:00;28.70;94.50
76967;DHT22;65904;52.278;20.972;2023-06-19T10:57:50;29.20;94.40
76967;DHT22;65904;52.278;20.972;2023-06-19T11:00:36;29.60;92.70
76967;DHT22;65904;52.278;20.972;2023-06-19T11:03:22;30.00;92.90
76967;DHT22;65904;52.278;20.972;2023-06-19T11:06:08;30.20;88.50
76967;DHT22;65904;52.278;20.972;2023-06-19T11:08:56;30.20;89.80
76967;DHT22;65904;52.278;20.972;2023-06-19T11:11:44;30.20;88.50
76967;DHT22;65904;52.278;20.972;2023-06-19T11:14:30;30.40;87.30
76967;DHT22;65904;52.278;20.972;2023-06-19T11:17:17;30.90;86.70
76967;DHT22;65904;52.278;20.972;2023-06-19T11:20:10;31.10;88.60
76967;DHT22;65904;52.278;20.972;2023-06-19T11:22:58;31.90;88.30
76967;DHT22;65904;52.278;20.972;2023-06-19T11:25:46;32.00;84.60
76967;DHT22;65904;52.278;20.972;2023-06-19T11:28:32;32.30;80.10
76967;DHT22;65904;52.278;20.972;2023-06-19T11:31:25;32.80;81.20
76967;DHT22;65904;52.278;20.972;2023-06-19T11:34:12;32.30;76.80
76967;DHT22;65904;52.278;20.972;2023-06-19T11:36:58;31.80;74.60
76967;DHT22;65904;52.278;20.972;2023-06-19T11:39:44;31.70;74.90
76967;DHT22;65904;52.278;20.972;2023-06-19T11:42:32;31.00;77.60
76967;DHT22;65904;52.278;20.972;2023-06-19T11:45:19;31.10;78.50
76967;DHT22;65904;52.278;20.972;2023-06-19T11:48:05;30.90;79.50
76967;DHT22;65904;52.278;20.972;2023-06-19T11:50:52;30.60;81.50
76967;DHT22;65904;52.278;20.972;2023-06-19T11:53:38;30.50;82.90
76967;DHT22;65904;52.278;20.972;2023-06-19T11:56:24;30.50;81.60
76967;DHT22;65904;52.278;20.972;2023-06-19T11:59:11;29.90;82.50
76967;DHT22;65904;52.278;20.972;2023-06-19T12:01:59;29.60;82.40
76967;DHT22;65904;52.278;20.972;2023-06-19T12:04:45;29.10;85.10
76967;DHT22;65904;52.278;20.972;2023-06-19T12:07:31;28.90;86.40
76967;DHT22;65904;52.278;20.972;2023-06-19T12:10:18;28.70;85.70
76967;DHT22;65904;52.278;20.972;2023-06-19T12:13:03;28.50;88.70
76967;DHT22;65904;52.278;20.972;2023-06-19T12:15:51;28.40;85.60
76967;DHT22;65904;52.278;20.972;2023-06-19T12:18:38;28.60;87.10
76967;DHT22;65904;52.278;20.972;2023-06-19T12:21:24;28.20;88.50
76967;DHT22;65904;52.278;20.972;2023-06-19T12:24:10;28.00;90.30
76967;DHT22;65904;52.278;20.972;2023-06-19T12:26:57;27.90;86.70
76967;DHT22;65904;52.278;20.972;2023-06-19T12:29:43;28.00;86.90
76967;DHT22;65904;52.278;20.972;2023-06-19T12:32:31;27.90;89.80
76967;DHT22;65904;52.278;20.972;2023-06-19T12:35:17;27.70;89.50
76967;DHT22;65904;52.278;20.972;2023-06-19T12:38:03;27.70;90.90
76967;DHT22;65904;52.278;20.972;2023-06-19T12:40:49;27.40;90.50
76967;DHT22;65904;52.278;20.972;2023-06-19T12:43:36;27.30;90.20
76967;DHT22;65904;52.278;20.972;2023-06-19T12:46:22;27.50;90.70
76967;DHT22;65904;52.278;20.972;2023-06-19T12:49:09;27.50;90.30
76967;DHT22;65904;52.278;20.972;2023-06-19T12:51:55;27.60;91.00
76967;DHT22;65904;52.278;20.972;2023-06-19T12:54:41;27.60;90.90
76967;DHT22;65904;52.278;20.972;2023-06-19T12:57:27;27.70;90.20
76967;DHT22;65904;52.278;20.972;2023-06-19T13:00:14;29.30;87.60
76967;DHT22;65904;52.278;20.972;2023-06-19T13:03:00;31.10;81.20
76967;DHT22;65904;52.278;20.972;2023-06-19T13:05:48;32.10;78.50
76967;DHT22;65904;52.278;20.972;2023-06-19T13:08:34;33.20;72.40
76967;DHT22;65904;52.278;20.972;2023-06-19T13:11:20;33.50;70.90
76967;DHT22;65904;52.278;20.972;2023-06-19T13:14:06;33.30;67.60
76967;DHT22;65904;52.278;20.972;2023-06-19T13:16:52;32.40;64.90
76967;DHT22;65904;52.278;20.972;2023-06-19T13:19:39;31.70;66.80
76967;DHT22;65904;52.278;20.972;2023-06-19T13:22:26;31.30;66.80
76967;DHT22;65904;52.278;20.972;2023-06-19T13:25:13;31.10;68.90
76967;DHT22;65904;52.278;20.972;2023-06-19T13:27:59;30.90;70.60
76967;DHT22;65904;52.278;20.972;2023-06-19T13:30:45;31.80;69.20
76967;DHT22;65904;52.278;20.972;2023-06-19T13:33:31;31.50;67.90
76967;DHT22;65904;52.278;20.972;2023-06-19T13:36:17;31.30;71.10
76967;DHT22;65904;52.278;20.972;2023-06-19T13:39:06;33.20;69.40
76967;DHT22;65904;52.278;20.972;2023-06-19T13:41:52;34.60;66.10
76967;DHT22;65904;52.278;20.972;2023-06-19T13:44:39;35.70;63.80
76967;DHT22;65904;52.278;20.972;2023-06-19T13:47:25;36.10;60.80
76967;DHT22;65904;52.278;20.972;2023-06-19T13:50:12;36.60;57.40
76967;DHT22;65904;52.278;20.972;2023-06-19T13:53:02;36.10;57.30
76967;DHT22;65904;52.278;20.972;2023-06-19T13:55:50;37.30;56.60
76967;DHT22;65904;52.278;20.972;2023-06-19T13:58:36;38.00;53.90
76967;DHT22;65904;52.278;20.972;2023-06-19T14:01:22;38.00;53.10
76967;DHT22;65904;52.278;20.972;2023-06-19T14:04:09;38.40;51.60
76967;DHT22;65904;52.278;20.972;2023-06-19T14:06:56;38.50;49.60
76967;DHT22;65904;52.278;20.972;2023-06-19T14:09:42;39.20;48.90
76967;DHT22;65904;52.278;20.972;2023-06-19T14:12:30;40.30;47.50
76967;DHT22;65904;52.278;20.972;2023-06-19T14:15:16;40.90;45.90
76967;DHT22;65904;52.278;20.972;2023-06-19T14:18:03;40.60;43.70
76967;DHT22;65904;52.278;20.972;2023-06-19T14:20:49;40.00;44.90
76967;DHT22;65904;52.278;20.972;2023-06-19T14:23:35;38.60;44.10
76967;DHT22;65904;52.278;20.972;2023-06-19T14:26:27;37.60;47.50
76967;DHT22;65904;52.278;20.972;2023-06-19T14:29:15;36.00;48.20
76967;DHT22;65904;52.278;20.972;2023-06-19T14:32:03;34.70;48.90
76967;DHT22;65904;52.278;20.972;2023-06-19T14:34:50;34.30;50.30
76967;DHT22;65904;52.278;20.972;2023-06-19T14:37:36;34.20;52.20
76967;DHT22;65904;52.278;20.972;2023-06-19T14:40:22;33.60;53.20
76967;DHT22;65904;52.278;20.972;2023-06-19T14:43:08;33.50;55.00
76967;DHT22;65904;52.278;20.972;2023-06-19T14:45:56;34.90;52.50
76967;DHT22;65904;52.278;20.972;2023-06-19T14:48:42;36.10;50.40
76967;DHT22;65904;52.278;20.972;2023-06-19T14:51:28;37.20;48.30
76967;DHT22;65904;52.278;20.972;2023-06-19T14:54:14;38.60;46.90
76967;DHT22;65904;52.278;20.972;2023-06-19T14:57:03;38.30;46.60
76967;DHT22;65904;52.278;20.972;2023-06-19T14:59:49;38.50;46.80
76967;DHT22;65904;52.278;20.972;2023-06-19T15:02:36;38.50;46.90
76967;DHT22;65904;52.278;20.972;2023-06-19T15:05:23;38.60;45.60
76967;DHT22;65904;52.278;20.972;2023-06-19T15:08:09;39.00;46.00
76967;DHT22;65904;52.278;20.972;2023-06-19T15:10:55;39.60;44.70
76967;DHT22;65904;52.278;20.972;2023-06-19T15:13:42;39.30;43.60
76967;DHT22;65904;52.278;20.972;2023-06-19T15:16:28;39.30;44.10
76967;DHT22;65904;52.278;20.972;2023-06-19T15:19:15;39.60;43.60
76967;DHT22;65904;52.278;20.972;2023-06-19T15:22:01;39.40;44.60
76967;DHT22;65904;52.278;20.972;2023-06-19T15:24:48;39.30;44.50
76967;DHT22;65904;52.278;20.972;2023-06-19T15:27:34;39.80;44.40
76967;DHT22;65904;52.278;20.972;2023-06-19T15:30:20;40.60;42.90
76967;DHT22;65904;52.278;20.972;2023-06-19T15:33:06;41.00;41.10
76967;DHT22;65904;52.278;20.972;2023-06-19T15:35:53;41.70;40.20
76967;DHT22;65904;52.278;20.972;2023-06-19T15:38:40;40.80;41.30
76967;DHT22;65904;52.278;20.972;2023-06-19T15:41:26;40.40;40.60
76967;DHT22;65904;52.278;20.972;2023-06-19T15:44:14;40.20;39.20
76967;DHT22;65904;52.278;20.972;2023-06-19T15:47:00;39.70;39.40
76967;DHT22;65904;52.278;20.972;2023-06-19T15:49:46;37.90;40.70
76967;DHT22;65904;52.278;20.972;2023-06-19T15:52:34;36.50;41.90
76967;DHT22;65904;52.278;20.972;2023-06-19T15:55:20;34.70;43.20
76967;DHT22;65904;52.278;20.972;2023-06-19T15:58:07;33.30;46.00
76967;DHT22;65904;52.278;20.972;2023-06-19T16:00:53;32.70;47.10
76967;DHT22;65904;52.278;20.972;2023-06-19T16:03:39;31.90;48.30
76967;DHT22;65904;52.278;20.972;2023-06-19T16:06:25;31.10;50.20
76967;DHT22;65904;52.278;20.972;2023-06-19T16:09:15;31.00;51.10
76967;DHT22;65904;52.278;20.972;2023-06-19T16:12:02;31.00;50.90
76967;DHT22;65904;52.278;20.972;2023-06-19T16:14:49;31.70;49.90
76967;DHT22;65904;52.278;20.972;2023-06-19T16:17:34;31.90;49.50
76967;DHT22;65904;52.278;20.972;2023-06-19T16:20:22;31.60;50.20
76967;DHT22;65904;52.278;20.972;2023-06-19T16:23:08;31.20;51.10
76967;DHT22;65904;52.278;20.972;2023-06-19T16:25:56;30.70;51.80
76967;DHT22;65904;52.278;20.972;2023-06-19T16:28:42;30.60;51.80
76967;DHT22;65904;52.278;20.972;2023-06-19T16:31:28;30.80;52.50
76967;DHT22;65904;52.278;20.972;2023-06-19T16:34:14;31.10;52.10
76967;DHT22;65904;52.278;20.972;2023-06-19T16:37:01;30.90;52.10
76967;DHT22;65904;52.278;20.972;2023-06-19T16:39:47;30.50;51.60
76967;DHT22;65904;52.278;20.972;2023-06-19T16:42:34;30.30;52.80
76967;DHT22;65904;52.278;20.972;2023-06-19T16:45:20;30.10;55.20
76967;DHT22;65904;52.278;20.972;2023-06-19T16:48:08;29.90;56.10
76967;DHT22;65904;52.278;20.972;2023-06-19T16:50:55;29.70;56.60
76967;DHT22;65904;52.278;20.972;2023-06-19T16:53:41;29.80;57.40
76967;DHT22;65904;52.278;20.972;2023-06-19T16:56:27;29.70;58.70
76967;DHT22;65904;52.278;20.972;2023-06-19T16:59:14;29.60;59.70
76967;DHT22;65904;52.278;20.972;2023-06-19T17:02:00;29.20;59.90
76967;DHT22;65904;52.278;20.972;2023-06-19T17:04:46;28.90;60.50
76967;DHT22;65904;52.278;20.972;2023-06-19T17:07:33;28.70;61.70
76967;DHT22;65904;52.278;20.972;2023-06-19T17:10:19;28.40;63.60
76967;DHT22;65904;52.278;20.972;2023-06-19T17:13:07;28.40;62.10
76967;DHT22;65904;52.278;20.972;2023-06-19T17:15:55;28.20;65.20
76967;DHT22;65904;52.278;20.972;2023-06-19T17:18:41;28.10;63.60